Time;durP1;ratioP1;P1;durP2;ratioP2;P2;SDS_P1;SDS_P2;PMS_P1;PMS_P2;Temp;Humidity;BMP_temperature;BMP_pressure;BME280_temperature;BME280_humidity;BME280_pressure;Samples;Min_cycle;Max_cycle;Signal;HPM_P1;HPM_P2
2023/05/29 00:00:09;;;;;;;14.20;5.47;;;;;;;;;;5072738;28;20441;-67
2023/05/29 00:02:36;;;;;;;8.80;3.60;;;;;;;;;;5072709;28;20453;-67
2023/05/29 00:05:05;;;;;;;14.60;4.57;;;;;;;;;;5072678;28;20445;-68
2023/05/29 00:07:33;;;;;;;9.43;3.30;;;;;;;;;;5073238;28;20453;-67
2023/05/29 00:10:00;;;;;;;9.07;3.40;;;;;;;;;;5072716;28;20442;-68
2023/05/29 00:12:27;;;;;;;11.63;3.63;;;;;;;;;;5072764;28;20477;-68
2023/05/29 00:14:56;;;;;;;8.37;3.27;;;;;;;;;;5072539;28;20452;-68
2023/05/29 00:17:23;;;;;;;10.50;3.60;;;;;;;;;;5072690;28;20471;-67
2023/05/29 00:19:50;;;;;;;10.80;3.73;;;;;;;;;;5072568;28;20539;-67
2023/05/29 00:22:17;;;;;;;15.30;4.30;;;;;;;;;;5072608;28;20751;-67
2023/05/29 00:24:45;;;;;;;10.37;4.30;;;;;;;;;;5072716;28;20443;-67
2023/05/29 00:27:12;;;;;;;12.90;5.07;;;;;;;;;;5072564;28;20876;-67
2023/05/29 00:29:39;;;;;;;12.60;4.03;;;;;;;;;;5072528;28;20765;-67
2023/05/29 00:32:08;;;;;;;16.83;4.57;;;;;;;;;;5074436;28;20988;-67
2023/05/29 00:34:35;;;;;;;13.00;3.03;;;;;;;;;;5076261;28;20442;-68
2023/05/29 00:37:02;;;;;;;12.57;4.37;;;;;;;;;;5076403;28;20891;-67
2023/05/29 00:39:30;;;;;;;7.30;3.33;;;;;;;;;;5076175;28;20440;-67
2023/05/29 00:41:57;;;;;;;12.43;3.93;;;;;;;;;;5076247;28;20499;-67
2023/05/29 00:44:24;;;;;;;15.33;4.47;;;;;;;;;;5076105;28;20440;-67
2023/05/29 00:46:53;;;;;;;18.23;4.00;;;;;;;;;;5075852;28;20444;-67
2023/05/29 00:49:23;;;;;;;17.93;3.90;;;;;;;;;;5075780;28;20433;-67
2023/05/29 00:51:53;;;;;;;18.80;4.73;;;;;;;;;;5076455;28;20490;-67
2023/05/29 00:54:23;;;;;;;12.80;4.50;;;;;;;;;;5075770;28;20527;-67
2023/05/29 00:56:50;;;;;;;14.00;4.30;;;;;;;;;;5075695;28;20436;-67
2023/05/29 00:59:19;;;;;;;13.37;3.90;;;;;;;;;;5075999;28;20441;-68
2023/05/29 01:01:46;;;;;;;11.77;3.87;;;;;;;;;;5075445;28;20930;-67
2023/05/29 01:04:13;;;;;;;14.70;4.33;;;;;;;;;;5075404;28;20466;-67
2023/05/29 01:06:42;;;;;;;13.03;5.00;;;;;;;;;;5076076;28;20447;-67
2023/05/29 01:09:09;;;;;;;13.23;3.70;;;;;;;;;;5075869;28;20437;-68
2023/05/29 01:11:40;;;;;;;9.63;3.60;;;;;;;;;;5075914;28;20487;-67
2023/05/29 01:14:10;;;;;;;12.90;4.57;;;;;;;;;;5075781;28;20432;-67
2023/05/29 01:16:40;;;;;;;17.30;4.80;;;;;;;;;;5075583;28;20477;-67
2023/05/29 01:19:13;;;;;;;15.00;4.57;;;;;;;;;;5075597;28;20446;-67
2023/05/29 01:21:46;;;;;;;21.97;4.20;;;;;;;;;;5075479;28;20440;-67
2023/05/29 01:24:16;;;;;;;23.30;5.33;;;;;;;;;;5075215;28;20523;-67
2023/05/29 01:26:48;;;;;;;14.10;5.20;;;;;;;;;;5075323;28;20446;-68
2023/05/29 01:29:16;;;;;;;14.70;4.13;;;;;;;;;;5075489;28;20433;-67
2023/05/29 01:31:43;;;;;;;15.73;5.27;;;;;;;;;;5075256;28;20472;-68
2023/05/29 01:34:11;;;;;;;18.63;4.50;;;;;;;;;;5075335;28;20444;-67
2023/05/29 01:36:38;;;;;;;17.30;4.03;;;;;;;;;;5075278;28;20443;-68
2023/05/29 01:39:06;;;;;;;10.43;3.70;;;;;;;;;;5075173;28;20447;-68
2023/05/29 01:41:34;;;;;;;17.47;3.70;;;;;;;;;;5075156;28;20453;-67
2023/05/29 01:44:04;;;;;;;16.50;3.90;;;;;;;;;;5073839;28;20441;-68
2023/05/29 01:46:32;;;;;;;16.37;4.10;;;;;;;;;;5075299;28;20492;-67
2023/05/29 01:48:59;;;;;;;17.10;3.70;;;;;;;;;;5075536;28;20432;-67
2023/05/29 01:51:26;;;;;;;6.93;3.70;;;;;;;;;;5074748;28;20484;-68
2023/05/29 01:53:54;;;;;;;18.50;4.10;;;;;;;;;;5074648;28;20542;-68
2023/05/29 01:56:22;;;;;;;16.80;3.63;;;;;;;;;;5075061;28;20536;-67
2023/05/29 01:58:49;;;;;;;20.27;4.60;;;;;;;;;;5074854;28;20793;-67
2023/05/29 02:01:18;;;;;;;22.43;4.23;;;;;;;;;;5074571;28;20445;-67
2023/05/29 02:03:45;;;;;;;13.77;4.40;;;;;;;;;;5074392;28;20451;-67
2023/05/29 02:06:12;;;;;;;12.40;4.30;;;;;;;;;;5074207;28;20448;-67
2023/05/29 02:08:40;;;;;;;14.93;4.10;;;;;;;;;;5074298;28;21033;-68
2023/05/29 02:11:07;;;;;;;21.77;4.97;;;;;;;;;;5074302;28;20921;-68
2023/05/29 02:13:35;;;;;;;18.73;3.80;;;;;;;;;;5074488;28;20845;-68
2023/05/29 02:16:03;;;;;;;11.03;3.87;;;;;;;;;;5074371;28;20472;-68
2023/05/29 02:18:31;;;;;;;27.70;4.60;;;;;;;;;;5074485;28;20437;-68
2023/05/29 02:20:59;;;;;;;6.10;3.70;;;;;;;;;;5074037;28;20445;-68
2023/05/29 02:23:26;;;;;;;16.90;5.10;;;;;;;;;;5073984;28;20452;-68
2023/05/29 02:25:53;;;;;;;14.10;4.40;;;;;;;;;;5073995;28;20442;-68
2023/05/29 02:28:20;;;;;;;18.23;3.97;;;;;;;;;;5073995;28;20941;-68
2023/05/29 02:30:47;;;;;;;16.50;4.40;;;;;;;;;;5074057;28;20732;-68
2023/05/29 02:33:15;;;;;;;15.07;4.40;;;;;;;;;;5073929;28;20476;-68
2023/05/29 02:35:44;;;;;;;18.90;4.20;;;;;;;;;;5074013;28;20535;-67
2023/05/29 02:38:11;;;;;;;12.13;3.80;;;;;;;;;;5074121;28;20491;-68
2023/05/29 02:40:38;;;;;;;11.53;4.03;;;;;;;;;;5073717;28;20198;-68
2023/05/29 02:43:06;;;;;;;21.53;4.30;;;;;;;;;;5074235;28;20452;-67
2023/05/29 02:45:33;;;;;;;22.03;3.67;;;;;;;;;;5073477;28;20448;-68
2023/05/29 02:48:00;;;;;;;10.63;3.73;;;;;;;;;;5073874;28;20444;-68
2023/05/29 02:50:28;;;;;;;21.23;5.20;;;;;;;;;;5073806;28;20436;-68
2023/05/29 02:52:57;;;;;;;15.67;4.80;;;;;;;;;;5073961;28;20979;-67
2023/05/29 02:55:24;;;;;;;19.60;4.27;;;;;;;;;;5073779;28;20457;-67
2023/05/29 02:57:54;;;;;;;21.23;4.80;;;;;;;;;;5073225;28;20983;-68
2023/05/29 03:00:22;;;;;;;14.43;5.50;;;;;;;;;;5073879;28;20607;-68
2023/05/29 03:02:49;;;;;;;11.13;3.83;;;;;;;;;;5073475;28;20446;-68
2023/05/29 03:05:17;;;;;;;14.20;4.40;;;;;;;;;;5074049;28;20448;-68
2023/05/29 03:07:44;;;;;;;10.63;4.10;;;;;;;;;;5073551;28;20809;-68
2023/05/29 03:10:17;;;;;;;16.07;5.10;;;;;;;;;;5073502;28;20527;-68
2023/05/29 03:12:44;;;;;;;11.83;3.40;;;;;;;;;;5073268;28;20530;-67
2023/05/29 03:15:12;;;;;;;23.07;4.70;;;;;;;;;;5072897;28;20448;-68
2023/05/29 03:17:39;;;;;;;19.17;4.60;;;;;;;;;;5073253;28;20463;-68
2023/05/29 03:20:07;;;;;;;13.97;4.10;;;;;;;;;;5073497;28;20472;-68
2023/05/29 03:22:35;;;;;;;18.60;4.80;;;;;;;;;;5073439;28;20514;-68
2023/05/29 03:25:03;;;;;;;18.03;3.40;;;;;;;;;;5073309;28;20498;-68
2023/05/29 03:27:31;;;;;;;16.57;4.30;;;;;;;;;;5073267;28;20905;-68
2023/05/29 03:30:00;;;;;;;18.73;4.10;;;;;;;;;;5073220;28;20466;-68
2023/05/29 03:32:27;;;;;;;11.48;4.20;;;;;;;;;;5073053;28;20508;-68
2023/05/29 03:34:55;;;;;;;12.27;3.83;;;;;;;;;;5072871;28;20205;-68
2023/05/29 03:37:22;;;;;;;14.23;3.67;;;;;;;;;;5072721;28;20997;-68
2023/05/29 03:39:49;;;;;;;12.93;3.80;;;;;;;;;;5072712;28;20204;-68
2023/05/29 03:42:16;;;;;;;15.50;4.40;;;;;;;;;;5072725;28;20441;-67
2023/05/29 03:44:45;;;;;;;17.40;3.80;;;;;;;;;;5072739;28;20479;-69
2023/05/29 03:47:12;;;;;;;21.85;4.65;;;;;;;;;;5072901;28;20805;-68
2023/05/29 03:49:40;;;;;;;12.67;5.17;;;;;;;;;;5073075;28;20561;-67
2023/05/29 03:52:07;;;;;;;15.60;4.20;;;;;;;;;;5071359;28;20479;-70
2023/05/29 03:54:34;;;;;;;13.03;4.00;;;;;;;;;;5072324;28;20446;-69
2023/05/29 03:57:01;;;;;;;9.60;3.00;;;;;;;;;;5071905;28;20453;-69
2023/05/29 03:59:29;;;;;;;16.63;5.10;;;;;;;;;;5072390;28;20448;-69
2023/05/29 04:01:57;;;;;;;13.57;4.17;;;;;;;;;;5072641;28;20451;-68
2023/05/29 04:04:25;;;;;;;11.43;3.20;;;;;;;;;;5072528;28;20820;-69
2023/05/29 04:06:52;;;;;;;24.77;6.13;;;;;;;;;;5074717;28;20464;-69
2023/05/29 04:09:19;;;;;;;17.43;4.33;;;;;;;;;;5076794;28;20448;-71
2023/05/29 04:11:46;;;;;;;15.80;4.53;;;;;;;;;;5076382;28;20445;-69
2023/05/29 04:14:13;;;;;;;13.05;3.50;;;;;;;;;;5077020;28;20591;-69
2023/05/29 04:16:41;;;;;;;11.70;3.80;;;;;;;;;;5076250;28;20230;-72
2023/05/29 04:19:09;;;;;;;14.00;3.70;;;;;;;;;;5076807;28;20446;-68
2023/05/29 04:21:37;;;;;;;11.30;3.73;;;;;;;;;;5076325;28;20436;-68
2023/05/29 04:24:04;;;;;;;8.70;3.63;;;;;;;;;;5076536;28;20456;-68
2023/05/29 04:26:32;;;;;;;14.23;4.43;;;;;;;;;;5076185;28;20444;-68
2023/05/29 04:29:00;;;;;;;13.20;4.50;;;;;;;;;;5076336;28;20461;-69
2023/05/29 04:31:27;;;;;;;10.50;3.60;;;;;;;;;;5077148;28;20437;-68
2023/05/29 04:33:55;;;;;;;12.53;4.00;;;;;;;;;;5076064;28;20983;-68
2023/05/29 04:36:25;;;;;;;13.67;4.23;;;;;;;;;;5076164;28;20440;-68
2023/05/29 04:38:53;;;;;;;9.00;3.40;;;;;;;;;;5076430;28;20452;-68
2023/05/29 04:41:23;;;;;;;8.87;3.50;;;;;;;;;;5076261;28;20519;-68
2023/05/29 04:43:50;;;;;;;12.57;4.70;;;;;;;;;;5076311;28;20961;-68
2023/05/29 04:46:18;;;;;;;11.60;4.40;;;;;;;;;;5075668;28;20930;-69
2023/05/29 04:48:46;;;;;;;12.87;4.27;;;;;;;;;;5075919;28;20450;-68
2023/05/29 04:51:13;;;;;;;12.90;4.57;;;;;;;;;;5075624;28;20448;-68
2023/05/29 04:53:42;;;;;;;12.83;3.63;;;;;;;;;;5075934;28;20490;-68
2023/05/29 04:56:09;;;;;;;9.93;3.00;;;;;;;;;;5075552;28;20436;-68
2023/05/29 04:58:36;;;;;;;17.57;4.37;;;;;;;;;;5075721;28;20448;-69
2023/05/29 05:01:03;;;;;;;11.07;3.00;;;;;;;;;;5075929;28;20455;-69
2023/05/29 05:03:33;;;;;;;14.40;4.80;;;;;;;;;;5075482;28;20454;-68
2023/05/29 05:06:02;;;;;;;15.70;3.87;;;;;;;;;;5075682;28;20914;-69
2023/05/29 05:08:29;;;;;;;11.63;3.23;;;;;;;;;;5075656;28;20442;-68
2023/05/29 05:10:57;;;;;;;10.37;4.00;;;;;;;;;;5075810;28;20509;-68
2023/05/29 05:13:24;;;;;;;15.40;3.30;;;;;;;;;;5075681;28;20486;-68
2023/05/29 05:15:52;;;;;;;10.07;4.30;;;;;;;;;;5075349;28;20477;-69
2023/05/29 05:18:19;;;;;;;15.73;3.53;;;;;;;;;;5059489;28;20460;-70
2023/05/29 05:20:46;;;;;;;11.73;3.50;;;;;;;;;;5059820;28;20532;-69
2023/05/29 05:23:13;;;;;;;14.40;3.60;;;;;;;;;;5074933;28;20440;-69
2023/05/29 05:25:41;;;;;;;8.17;3.47;;;;;;;;;;5075075;28;20463;-69
2023/05/29 05:28:10;;;;;;;14.10;3.30;;;;;;;;;;5074753;28;20453;-68
2023/05/29 05:30:37;;;;;;;13.27;4.40;;;;;;;;;;5075271;28;20510;-68
2023/05/29 05:33:04;;;;;;;14.03;4.33;;;;;;;;;;5075259;28;20481;-69
2023/05/29 05:35:31;;;;;;;16.50;4.20;;;;;;;;;;5074771;28;20926;-68
2023/05/29 05:38:00;;;;;;;15.93;3.50;;;;;;;;;;5075039;28;20804;-70
2023/05/29 05:40:27;;;;;;;15.20;4.10;;;;;;;;;;5074881;28;20449;-68
2023/05/29 05:42:54;;;;;;;17.83;3.73;;;;;;;;;;5074950;28;20449;-69
2023/05/29 05:45:23;;;;;;;16.60;3.63;;;;;;;;;;5075522;28;20448;-69
2023/05/29 05:47:50;;;;;;;17.63;3.57;;;;;;;;;;5074406;28;20961;-71
2023/05/29 05:50:17;;;;;;;7.80;3.33;;;;;;;;;;5074964;28;20784;-69
2023/05/29 05:52:45;;;;;;;16.03;4.80;;;;;;;;;;5075035;28;20472;-69
2023/05/29 05:55:12;;;;;;;19.67;3.73;;;;;;;;;;5074685;28;20468;-69
2023/05/29 05:57:39;;;;;;;16.00;4.30;;;;;;;;;;5074844;28;20445;-69
2023/05/29 06:00:09;;;;;;;11.67;4.00;;;;;;;;;;5074435;28;20536;-69
2023/05/29 06:02:38;;;;;;;10.37;4.00;;;;;;;;;;5074473;28;20437;-68
2023/05/29 06:05:07;;;;;;;15.83;4.00;;;;;;;;;;5074415;28;20852;-69
2023/05/29 06:07:34;;;;;;;17.70;4.67;;;;;;;;;;5074507;28;20503;-69
2023/05/29 06:10:01;;;;;;;13.43;3.60;;;;;;;;;;5074372;28;20444;-68
2023/05/29 06:12:28;;;;;;;11.17;3.53;;;;;;;;;;5074223;28;20945;-68
2023/05/29 06:14:56;;;;;;;24.67;4.07;;;;;;;;;;5074424;28;20450;-69
2023/05/29 06:17:23;;;;;;;18.43;5.53;;;;;;;;;;5073918;28;20504;-68
2023/05/29 06:19:52;;;;;;;14.90;3.63;;;;;;;;;;5074476;28;20504;-69
2023/05/29 06:22:19;;;;;;;13.50;3.90;;;;;;;;;;5074541;28;20449;-69
2023/05/29 06:24:46;;;;;;;17.93;3.43;;;;;;;;;;5074230;28;20969;-69
2023/05/29 06:27:13;;;;;;;17.03;4.00;;;;;;;;;;5074200;28;20433;-69
2023/05/29 06:29:40;;;;;;;21.53;4.50;;;;;;;;;;5073405;28;20440;-69
2023/05/29 06:32:07;;;;;;;10.90;4.80;;;;;;;;;;5074510;28;20451;-69
2023/05/29 06:34:35;;;;;;;14.03;3.70;;;;;;;;;;5074485;28;20481;-69
2023/05/29 06:37:04;;;;;;;12.80;3.67;;;;;;;;;;5073602;28;20448;-69
2023/05/29 06:39:31;;;;;;;12.90;4.00;;;;;;;;;;5073867;28;20448;-69
2023/05/29 06:41:58;;;;;;;20.13;4.33;;;;;;;;;;5074150;28;20445;-69
2023/05/29 06:44:25;;;;;;;9.43;4.03;;;;;;;;;;5074257;28;20872;-69
2023/05/29 06:46:52;;;;;;;16.93;5.20;;;;;;;;;;5073548;28;20483;-69
2023/05/29 06:49:20;;;;;;;9.17;3.00;;;;;;;;;;5073832;28;20540;-69
2023/05/29 06:51:47;;;;;;;12.40;3.20;;;;;;;;;;5073786;28;20448;-69
2023/05/29 06:54:16;;;;;;;10.10;3.70;;;;;;;;;;5074223;28;20974;-69
2023/05/29 06:56:43;;;;;;;14.33;3.90;;;;;;;;;;5073436;28;20453;-69
2023/05/29 06:59:10;;;;;;;12.70;3.37;;;;;;;;;;5073478;28;21112;-69
2023/05/29 07:01:37;;;;;;;8.63;3.40;;;;;;;;;;5073387;28;20450;-69
2023/05/29 07:04:05;;;;;;;15.10;3.43;;;;;;;;;;5073134;28;20923;-69
2023/05/29 07:06:33;;;;;;;6.50;3.53;;;;;;;;;;5073240;28;20450;-70
2023/05/29 07:09:00;;;;;;;14.47;3.20;;;;;;;;;;5073605;28;20463;-69
2023/05/29 07:11:29;;;;;;;20.47;3.90;;;;;;;;;;5073520;28;20446;-69
2023/05/29 07:13:56;;;;;;;9.53;3.50;;;;;;;;;;5073121;28;20481;-69
2023/05/29 07:16:23;;;;;;;14.17;3.10;;;;;;;;;;5072843;28;20561;-69
2023/05/29 07:18:50;;;;;;;16.27;3.67;;;;;;;;;;5073564;28;20454;-69
2023/05/29 07:21:18;;;;;;;9.70;4.20;;;;;;;;;;5073021;28;20481;-69
2023/05/29 07:23:45;;;;;;;11.17;3.07;;;;;;;;;;5072449;28;20446;-69
2023/05/29 07:26:13;;;;;;;12.10;3.77;;;;;;;;;;5072838;28;20449;-69
2023/05/29 07:28:41;;;;;;;18.27;3.67;;;;;;;;;;5073483;28;20469;-69
2023/05/29 07:31:08;;;;;;;11.93;3.27;;;;;;;;;;5073245;28;20437;-69
2023/05/29 07:33:36;;;;;;;8.20;3.30;;;;;;;;;;5073213;28;20486;-69
2023/05/29 07:36:03;;;;;;;9.27;3.10;;;;;;;;;;5072837;28;20770;-69
2023/05/29 07:38:30;;;;;;;15.10;4.27;;;;;;;;;;5073983;28;20449;-69
2023/05/29 07:40:58;;;;;;;10.60;3.97;;;;;;;;;;5073390;28;20802;-69
2023/05/29 07:43:25;;;;;;;9.00;2.80;;;;;;;;;;5072937;28;20443;-69
2023/05/29 07:45:54;;;;;;;8.00;3.33;;;;;;;;;;5072606;28;20448;-69
2023/05/29 07:48:21;;;;;;;11.40;3.17;;;;;;;;;;5072855;28;20427;-69
2023/05/29 07:50:48;;;;;;;10.47;3.70;;;;;;;;;;5073035;28;20445;-69
2023/05/29 07:53:16;;;;;;;8.93;3.20;;;;;;;;;;5072502;28;20454;-69
2023/05/29 07:55:43;;;;;;;9.00;3.40;;;;;;;;;;5072906;28;20442;-69
2023/05/29 07:58:11;;;;;;;12.50;4.07;;;;;;;;;;5073277;28;20442;-69
2023/05/29 08:00:38;;;;;;;12.93;4.33;;;;;;;;;;5072450;28;20445;-69
2023/05/29 08:03:08;;;;;;;7.00;2.93;;;;;;;;;;5072724;28;20459;-70
2023/05/29 08:05:35;;;;;;;16.57;3.80;;;;;;;;;;5072467;28;20447;-70
2023/05/29 08:08:02;;;;;;;12.90;4.10;;;;;;;;;;5072515;28;20440;-69
2023/05/29 08:10:29;;;;;;;7.03;3.33;;;;;;;;;;5073044;28;20437;-69
2023/05/29 08:12:57;;;;;;;10.87;3.63;;;;;;;;;;5072447;28;20435;-69
2023/05/29 08:15:26;;;;;;;12.50;4.10;;;;;;;;;;5072484;28;20858;-68
2023/05/29 08:17:53;;;;;;;9.90;3.00;;;;;;;;;;5072771;28;20855;-69
2023/05/29 08:20:22;;;;;;;14.13;3.73;;;;;;;;;;5072836;28;20533;-69
2023/05/29 08:22:49;;;;;;;12.37;3.10;;;;;;;;;;5072482;28;20460;-69
2023/05/29 08:25:16;;;;;;;19.20;4.33;;;;;;;;;;5072092;28;20446;-68
2023/05/29 08:27:44;;;;;;;9.17;3.27;;;;;;;;;;5072113;28;20957;-68
2023/05/29 08:30:12;;;;;;;11.90;3.93;;;;;;;;;;5072506;28;20442;-70
2023/05/29 08:32:39;;;;;;;17.43;5.10;;;;;;;;;;5072901;28;20793;-68
2023/05/29 08:35:07;;;;;;;15.13;4.93;;;;;;;;;;5072715;28;20486;-69
2023/05/29 08:37:35;;;;;;;9.93;3.90;;;;;;;;;;5072358;28;20450;-69
2023/05/29 08:40:07;;;;;;;14.00;4.60;;;;;;;;;;5072164;28;20502;-69
2023/05/29 08:42:37;;;;;;;12.53;3.63;;;;;;;;;;5072332;28;20776;-68
2023/05/29 08:45:05;;;;;;;18.00;4.40;;;;;;;;;;5071879;28;20809;-71
2023/05/29 08:47:34;;;;;;;9.67;3.30;;;;;;;;;;5072184;28;20864;-69
2023/05/29 08:50:02;;;;;;;10.20;3.70;;;;;;;;;;5072388;28;20439;-69
2023/05/29 08:52:30;;;;;;;10.77;3.00;;;;;;;;;;5073358;28;20447;-68
2023/05/29 08:55:00;;;;;;;14.33;3.70;;;;;;;;;;5075958;28;20592;-68
2023/05/29 08:57:29;;;;;;;10.53;3.77;;;;;;;;;;5076186;28;20442;-68
2023/05/29 08:59:57;;;;;;;17.93;4.73;;;;;;;;;;5076075;28;20545;-68
2023/05/29 09:02:24;;;;;;;15.03;4.73;;;;;;;;;;5075411;28;20484;-68
2023/05/29 09:04:54;;;;;;;17.57;3.50;;;;;;;;;;5075704;28;20558;-69
2023/05/29 09:07:22;;;;;;;12.03;3.90;;;;;;;;;;5075189;28;20451;-69
2023/05/29 09:09:50;;;;;;;9.27;3.73;;;;;;;;;;5075536;28;20473;-69
2023/05/29 09:12:18;;;;;;;11.80;3.70;;;;;;;;;;5075241;28;20465;-68
2023/05/29 09:14:47;;;;;;;8.73;4.00;;;;;;;;;;5075680;28;20500;-68
2023/05/29 09:17:15;;;;;;;11.93;3.73;;;;;;;;;;5075799;28;20469;-68
2023/05/29 09:19:42;;;;;;;15.57;3.30;;;;;;;;;;5075450;28;20586;-68
2023/05/29 09:22:11;;;;;;;7.13;3.60;;;;;;;;;;5075237;28;20923;-68
2023/05/29 09:24:39;;;;;;;10.17;3.87;;;;;;;;;;5075088;28;20452;-69
2023/05/29 09:27:08;;;;;;;12.27;3.80;;;;;;;;;;5074839;28;20972;-69
2023/05/29 09:29:39;;;;;;;11.63;3.67;;;;;;;;;;5074969;28;20805;-69
2023/05/29 09:32:08;;;;;;;9.30;3.10;;;;;;;;;;5075142;28;20436;-69
2023/05/29 09:34:35;;;;;;;11.73;4.03;;;;;;;;;;5075299;28;20482;-69
2023/05/29 09:37:07;;;;;;;10.13;3.70;;;;;;;;;;5074947;28;20442;-69
2023/05/29 09:39:35;;;;;;;15.20;4.47;;;;;;;;;;5075884;28;20425;-68
2023/05/29 09:42:02;;;;;;;9.53;3.70;;;;;;;;;;5075310;28;20488;-68
2023/05/29 09:44:30;;;;;;;11.37;4.40;;;;;;;;;;5074711;28;21052;-70
2023/05/29 09:47:01;;;;;;;11.67;4.50;;;;;;;;;;5074570;28;20942;-68
2023/05/29 09:49:28;;;;;;;14.10;4.40;;;;;;;;;;5075047;28;20447;-68
2023/05/29 09:51:55;;;;;;;11.27;3.60;;;;;;;;;;5074967;28;20444;-69
2023/05/29 09:54:23;;;;;;;14.63;3.43;;;;;;;;;;5074807;28;20477;-68
2023/05/29 09:56:51;;;;;;;9.67;3.10;;;;;;;;;;5074883;28;20523;-68
2023/05/29 09:59:21;;;;;;;9.30;2.93;;;;;;;;;;5074991;28;20446;-68
2023/05/29 10:01:48;;;;;;;15.77;4.30;;;;;;;;;;5074412;28;20453;-69
2023/05/29 10:04:16;;;;;;;10.07;3.90;;;;;;;;;;5073558;28;20811;-68
2023/05/29 10:06:46;;;;;;;8.53;3.80;;;;;;;;;;5074133;28;20522;-69
2023/05/29 10:09:14;;;;;;;13.13;2.93;;;;;;;;;;5074325;28;20433;-68
2023/05/29 10:11:43;;;;;;;9.30;3.70;;;;;;;;;;5074514;28;20452;-68
2023/05/29 10:14:12;;;;;;;9.53;3.20;;;;;;;;;;5074555;28;20550;-67
2023/05/29 10:16:42;;;;;;;12.70;4.30;;;;;;;;;;5074322;28;21002;-68
2023/05/29 10:19:13;;;;;;;12.20;3.63;;;;;;;;;;5074174;28;20915;-68
2023/05/29 10:21:44;;;;;;;11.40;3.13;;;;;;;;;;5074440;28;20815;-69
2023/05/29 10:24:12;;;;;;;9.73;3.60;;;;;;;;;;5074312;28;20499;-68
2023/05/29 10:26:41;;;;;;;12.17;5.07;;;;;;;;;;5073585;28;20454;-69
2023/05/29 10:29:12;;;;;;;12.73;4.27;;;;;;;;;;5074175;28;20449;-69
2023/05/29 10:31:45;;;;;;;9.03;4.00;;;;;;;;;;5074383;28;20430;-69
2023/05/29 10:34:16;;;;;;;9.50;3.47;;;;;;;;;;5074186;28;20549;-69
2023/05/29 10:36:54;;;;;;;12.40;3.60;;;;;;;;;;5074280;28;20509;-69
2023/05/29 10:39:22;;;;;;;12.93;4.50;;;;;;;;;;5074111;28;20465;-68
2023/05/29 10:41:50;;;;;;;6.17;3.30;;;;;;;;;;5074038;28;20444;-68
2023/05/29 10:44:35;;;;;;;10.90;3.17;;;;;;;;;;5073796;28;20557;-68
2023/05/29 10:47:03;;;;;;;9.40;3.70;;;;;;;;;;5073234;28;20436;-69
2023/05/29 10:49:31;;;;;;;9.30;3.40;;;;;;;;;;5074043;28;20838;-68
2023/05/29 10:52:00;;;;;;;10.87;3.27;;;;;;;;;;5074341;28;20477;-68
2023/05/29 10:54:28;;;;;;;12.13;4.10;;;;;;;;;;5073387;28;20995;-68
2023/05/29 10:56:57;;;;;;;16.10;3.60;;;;;;;;;;5073615;28;20447;-68
2023/05/29 10:59:27;;;;;;;8.50;3.60;;;;;;;;;;5073782;28;20441;-68
2023/05/29 11:01:54;;;;;;;13.90;3.33;;;;;;;;;;5074040;28;20844;-68
2023/05/29 11:04:30;;;;;;;9.50;3.47;;;;;;;;;;5073623;28;20466;-68
2023/05/29 11:06:57;;;;;;;9.27;3.63;;;;;;;;;;5073428;28;20449;-69
2023/05/29 11:09:29;;;;;;;10.30;3.60;;;;;;;;;;5073605;28;20469;-68
2023/05/29 11:12:12;;;;;;;9.37;5.40;;;;;;;;;;5073087;28;20446;-68
2023/05/29 11:14:46;;;;;;;14.03;3.47;;;;;;;;;;5072854;28;20498;-69
2023/05/29 11:17:28;;;;;;;10.80;4.23;;;;;;;;;;5072804;28;20477;-68
2023/05/29 11:19:57;;;;;;;9.90;3.67;;;;;;;;;;5072965;28;20439;-69
2023/05/29 11:22:28;;;;;;;8.53;3.30;;;;;;;;;;5073290;28;20794;-68
2023/05/29 11:24:58;;;;;;;11.23;3.30;;;;;;;;;;5072877;28;20433;-69
2023/05/29 11:27:25;;;;;;;15.80;4.33;;;;;;;;;;5072813;28;20454;-68
2023/05/29 11:29:54;;;;;;;11.63;3.87;;;;;;;;;;5072736;28;20443;-68
2023/05/29 11:32:23;;;;;;;9.50;3.50;;;;;;;;;;5073052;28;20447;-69
2023/05/29 11:34:51;;;;;;;7.40;3.60;;;;;;;;;;5072541;28;20488;-68
2023/05/29 11:37:18;;;;;;;5.90;3.50;;;;;;;;;;5072683;28;20534;-69
2023/05/29 11:39:47;;;;;;;9.63;3.67;;;;;;;;;;5072628;28;20935;-68
2023/05/29 11:42:16;;;;;;;12.60;5.10;;;;;;;;;;5072665;28;20434;-68
2023/05/29 11:44:44;;;;;;;14.13;3.60;;;;;;;;;;5072542;28;20958;-68
2023/05/29 11:47:11;;;;;;;7.90;3.83;;;;;;;;;;5073014;28;20442;-68
2023/05/29 11:49:39;;;;;;;8.80;3.47;;;;;;;;;;5073065;28;20442;-68
2023/05/29 11:52:09;;;;;;;10.10;3.60;;;;;;;;;;5072472;28;20444;-68
2023/05/29 11:54:36;;;;;;;11.40;3.10;;;;;;;;;;5072725;28;20571;-69
2023/05/29 11:57:05;;;;;;;15.80;5.10;;;;;;;;;;5072500;28;20489;-69
2023/05/29 11:59:34;;;;;;;7.80;3.43;;;;;;;;;;5072671;28;20438;-69
2023/05/29 12:02:03;;;;;;;7.77;3.77;;;;;;;;;;5072493;28;20451;-69
2023/05/29 12:04:31;;;;;;;9.00;3.50;;;;;;;;;;5072628;28;20473;-69
2023/05/29 12:06:58;;;;;;;7.90;3.90;;;;;;;;;;5072295;28;20906;-69
2023/05/29 12:09:26;;;;;;;5.83;2.87;;;;;;;;;;5072247;28;20477;-68
2023/05/29 12:11:53;;;;;;;13.47;4.00;;;;;;;;;;5072170;28;20504;-68
2023/05/29 12:14:21;;;;;;;8.97;3.60;;;;;;;;;;5072522;28;20450;-68
2023/05/29 12:16:50;;;;;;;11.33;4.80;;;;;;;;;;5071966;28;20517;-69
2023/05/29 12:19:17;;;;;;;8.50;3.93;;;;;;;;;;5072282;28;20474;-68
2023/05/29 12:21:44;;;;;;;11.83;5.00;;;;;;;;;;5072612;28;20434;-67
2023/05/29 12:24:12;;;;;;;10.97;3.50;;;;;;;;;;5072377;28;20444;-68
2023/05/29 12:26:39;;;;;;;10.03;4.33;;;;;;;;;;5072228;28;20454;-68
2023/05/29 12:29:06;;;;;;;8.53;3.50;;;;;;;;;;5076704;28;20445;-68
2023/05/29 12:31:34;;;;;;;9.60;4.83;;;;;;;;;;5076498;28;20432;-69
2023/05/29 12:34:03;;;;;;;11.20;4.17;;;;;;;;;;5076540;28;20543;-67
2023/05/29 12:36:32;;;;;;;8.00;3.50;;;;;;;;;;5076069;28;20611;-67
2023/05/29 12:39:00;;;;;;;6.67;3.60;;;;;;;;;;5075567;28;20483;-68
2023/05/29 12:41:28;;;;;;;10.20;3.70;;;;;;;;;;5075521;28;20537;-68
2023/05/29 12:43:56;;;;;;;5.40;3.23;;;;;;;;;;5075589;28;20439;-68
2023/05/29 12:46:23;;;;;;;11.77;3.67;;;;;;;;;;5074096;28;20486;-70
2023/05/29 12:48:51;;;;;;;8.17;3.63;;;;;;;;;;5075511;28;20530;-68
2023/05/29 12:51:24;;;;;;;13.50;4.97;;;;;;;;;;5075668;28;20440;-67
2023/05/29 12:53:54;;;;;;;10.90;5.07;;;;;;;;;;5075254;28;20443;-68
2023/05/29 12:56:22;;;;;;;7.80;3.70;;;;;;;;;;5075372;28;20524;-67
2023/05/29 12:58:49;;;;;;;11.23;4.43;;;;;;;;;;5075384;28;20476;-69
2023/05/29 13:01:16;;;;;;;9.57;3.70;;;;;;;;;;5075686;28;20486;-68
2023/05/29 13:03:44;;;;;;;7.73;3.30;;;;;;;;;;5075639;28;20448;-68
2023/05/29 13:06:11;;;;;;;9.83;3.60;;;;;;;;;;5075497;28;20518;-68
2023/05/29 13:08:40;;;;;;;7.30;3.57;;;;;;;;;;5075471;28;20798;-67
2023/05/29 13:11:07;;;;;;;17.50;9.97;;;;;;;;;;5074942;28;20446;-67
2023/05/29 13:13:34;;;;;;;7.97;4.00;;;;;;;;;;5075147;28;20532;-68
2023/05/29 13:16:01;;;;;;;5.07;3.20;;;;;;;;;;5074630;28;20518;-68
2023/05/29 13:18:28;;;;;;;10.00;4.17;;;;;;;;;;5075176;28;20461;-67
2023/05/29 13:20:56;;;;;;;10.93;4.10;;;;;;;;;;5075541;28;20455;-68
2023/05/29 13:23:23;;;;;;;5.63;3.27;;;;;;;;;;5074970;28;20444;-68
2023/05/29 13:25:51;;;;;;;11.53;4.67;;;;;;;;;;5075201;28;20815;-67
2023/05/29 13:28:19;;;;;;;7.97;3.23;;;;;;;;;;5074804;28;20993;-68
2023/05/29 13:30:46;;;;;;;6.80;3.80;;;;;;;;;;5075011;28;20443;-68
2023/05/29 13:33:13;;;;;;;13.40;6.70;;;;;;;;;;5075052;28;20445;-68
2023/05/29 13:35:40;;;;;;;9.63;3.73;;;;;;;;;;5074822;28;20487;-68
2023/05/29 13:38:07;;;;;;;9.10;4.20;;;;;;;;;;5074758;28;20572;-68
2023/05/29 13:40:35;;;;;;;9.60;4.57;;;;;;;;;;5074755;28;20523;-68
2023/05/29 13:43:04;;;;;;;12.53;4.80;;;;;;;;;;5075005;28;20444;-67
2023/05/29 13:45:31;;;;;;;11.13;4.37;;;;;;;;;;5074533;28;20464;-67
2023/05/29 13:47:58;;;;;;;11.70;4.53;;;;;;;;;;5074481;28;20443;-67
2023/05/29 13:50:25;;;;;;;7.70;3.20;;;;;;;;;;5074437;28;20997;-67
2023/05/29 13:52:52;;;;;;;8.80;4.47;;;;;;;;;;5074360;28;20905;-66
2023/05/29 13:55:20;;;;;;;10.73;4.33;;;;;;;;;;5074160;28;20980;-66
2023/05/29 13:57:47;;;;;;;8.13;3.60;;;;;;;;;;5074955;28;20447;-67
2023/05/29 14:00:17;;;;;;;10.30;4.40;;;;;;;;;;5074236;28;20776;-67
2023/05/29 14:02:44;;;;;;;8.13;4.07;;;;;;;;;;5074297;28;20498;-67
2023/05/29 14:05:11;;;;;;;10.17;3.97;;;;;;;;;;5074113;28;20940;-67
2023/05/29 14:07:38;;;;;;;26.80;24.03;;;;;;;;;;5074065;28;20452;-67
2023/05/29 14:10:06;;;;;;;9.63;4.63;;;;;;;;;;5074153;28;20507;-67
2023/05/29 14:12:33;;;;;;;9.07;3.90;;;;;;;;;;5074459;28;20451;-67
2023/05/29 14:15:01;;;;;;;9.07;5.10;;;;;;;;;;5073754;28;20463;-67
2023/05/29 14:17:29;;;;;;;15.63;10.73;;;;;;;;;;5074147;28;20501;-67
2023/05/29 14:19:57;;;;;;;9.43;5.00;;;;;;;;;;5073661;28;20438;-66
2023/05/29 14:22:24;;;;;;;7.70;3.50;;;;;;;;;;5073671;28;20930;-66
2023/05/29 14:24:51;;;;;;;16.40;6.23;;;;;;;;;;5073754;28;20442;-66
2023/05/29 14:27:18;;;;;;;9.40;6.37;;;;;;;;;;5073554;28;20449;-67
2023/05/29 14:29:47;;;;;;;9.90;3.80;;;;;;;;;;5073945;28;20795;-67
2023/05/29 14:32:14;;;;;;;8.97;5.93;;;;;;;;;;5073532;28;20443;-66
2023/05/29 14:34:43;;;;;;;15.60;8.83;;;;;;;;;;5073300;28;20444;-68
2023/05/29 14:37:10;;;;;;;14.27;5.73;;;;;;;;;;5073588;28;20495;-67